Terminal Aerodrome Forecast
Issued by NWS Jackson, MS

Home | Current Version | Previous Version | Text Only | Print | Product List | Glossary On
Versions: 1 2 3 4 5 6 7 8 9 10 11 12 13 14 15
000
FTUS44 KJAN 191120
TAFGWO
TAF
KGWO 191120Z 1912/2012 18008KT P6SM BKN010
     FM191600 18016G24KT P6SM BKN030 BKN250
     FM200000 16011KT P6SM BKN250
     FM201000 16010KT P6SM BKN015=

USA.gov is the U.S. government's official web portal to all federal, state and local government web resources and services.